Terminal Aerodrome Forecast
Issued by NWS Shreveport, LA

Home | Current Version | Previous Version | Text Only | Print | Product List | Glossary On
Versions: 1 2 3 4 5 6 7 8 9 10 11 12 13
000
FTUS44 KSHV 111140
TAFTYR
TAF
KTYR 111140Z 1112/1212 23007KT P6SM SKC
     FM111500 24010KT P6SM SCT250
     FM120000 26010G16KT P6SM SCT250
     FM120500 33010KT P6SM SCT250=

USA.gov is the U.S. government's official web portal to all federal, state and local government web resources and services.